Time;durP1;ratioP1;P1;durP2;ratioP2;P2;SDS_P1;SDS_P2;PMS_P1;PMS_P2;Temp;Humidity;BMP_temperature;BMP_pressure;BME280_temperature;BME280_humidity;BME280_pressure;Samples;Min_cycle;Max_cycle;Signal;HPM_P1;HPM_P2
2022/11/16 00:00:09;;;;;;;52.37;17.17;;;11.00;93.90;;;;;;5094859;28;20257;-78
2022/11/16 00:02:37;;;;;;;50.40;17.77;;;11.00;94.00;;;;;;5093892;28;20190;-79
2022/11/16 00:05:08;;;;;;;53.50;19.27;;;11.00;93.90;;;;;;5096436;28;20194;-79
2022/11/16 00:07:36;;;;;;;47.93;17.83;;;11.10;93.80;;;;;;5093529;28;20220;-79
2022/11/16 00:10:05;;;;;;;50.63;20.00;;;11.10;93.80;;;;;;5090447;28;20434;-79
2022/11/16 00:12:34;;;;;;;51.57;18.40;;;11.10;93.80;;;;;;5091485;28;20202;-79
2022/11/16 00:15:02;;;;;;;59.40;18.57;;;11.10;93.70;;;;;;5087400;28;20194;-78
2022/11/16 00:17:30;;;;;;;53.40;18.20;;;11.10;93.60;;;;;;5094499;28;20255;-80
2022/11/16 00:19:59;;;;;;;54.07;19.30;;;11.10;93.60;;;;;;5094264;28;20218;-79
2022/11/16 00:22:28;;;;;;;54.25;19.60;;;11.10;93.60;;;;;;5095678;28;20427;-79
2022/11/16 00:24:57;;;;;;;54.13;18.43;;;11.10;93.50;;;;;;5091498;28;20201;-79
2022/11/16 00:27:25;;;;;;;50.33;19.73;;;11.10;93.60;;;;;;5092009;28;20193;-80
2022/11/16 00:29:53;;;;;;;55.27;18.80;;;11.20;93.70;;;;;;5087884;28;20223;-80
2022/11/16 00:32:22;;;;;;;52.70;18.10;;;11.10;93.70;;;;;;5095135;28;20724;-81
2022/11/16 00:34:50;;;;;;;56.10;18.67;;;11.10;93.60;;;;;;5094074;28;20243;-78
2022/11/16 00:37:18;;;;;;;54.50;17.77;;;11.20;93.60;;;;;;5087079;28;20202;-77
2022/11/16 00:39:48;;;;;;;55.00;18.10;;;11.20;93.80;;;;;;5090435;28;20621;-78
2022/11/16 00:42:16;;;;;;;56.90;17.93;;;11.20;93.70;;;;;;5091969;28;20732;-79
2022/11/16 00:44:44;;;;;;;51.33;19.20;;;11.20;93.70;;;;;;5096526;28;20197;-79
2022/11/16 00:47:13;;;;;;;60.90;19.10;;;11.20;93.70;;;;;;5092862;28;20220;-77
2022/11/16 00:49:41;;;;;;;58.58;20.15;;;11.20;93.80;;;;;;5095527;28;20920;-79
2022/11/16 00:52:09;;;;;;;63.53;19.93;;;11.10;93.90;;;;;;5097712;28;20246;-81
2022/11/16 00:54:37;;;;;;;48.57;17.40;;;11.10;93.90;;;;;;5096213;28;20206;-78
2022/11/16 00:57:07;;;;;;;54.30;18.43;;;11.10;93.90;;;;;;5094827;28;20658;-80
2022/11/16 00:59:35;;;;;;;51.53;17.70;;;11.10;93.90;;;;;;5092217;28;20224;-79
2022/11/16 01:02:04;;;;;;;52.30;18.30;;;11.10;94.00;;;;;;5070848;28;20255;-79
2022/11/16 01:04:32;;;;;;;57.90;18.97;;;11.10;94.00;;;;;;5069442;28;20271;-77
2022/11/16 01:07:00;;;;;;;57.97;19.43;;;11.10;93.90;;;;;;5072888;28;20257;-80
2022/11/16 01:09:29;;;;;;;51.97;17.03;;;11.10;93.90;;;;;;5071435;28;20195;-78
2022/11/16 01:12:08;;;;;;;52.40;18.10;;;11.10;94.00;;;;;;5071444;28;20194;-79
2022/11/16 01:14:39;;;;;;;48.83;17.70;;;11.10;93.90;;;;;;5070931;28;20229;-78
2022/11/16 01:17:08;;;;;;;57.93;19.63;;;11.10;93.90;;;;;;5073537;28;20631;-78
2022/11/16 01:19:37;;;;;;;58.00;18.70;;;11.20;94.00;;;;;;5067891;28;20198;-77
2022/11/16 01:22:05;;;;;;;58.53;19.00;;;11.20;93.90;;;;;;5070160;28;20636;-79
2022/11/16 01:24:33;;;;;;;61.50;16.80;;;11.20;93.90;;;;;;5078479;28;20220;-80
2022/11/16 01:27:01;;;;;;;57.63;17.60;;;11.20;93.80;;;;;;5078102;28;20206;-78
2022/11/16 01:29:30;;;;;;;56.20;17.20;;;11.20;93.90;;;;;;5072357;28;20228;-79
2022/11/16 01:32:01;;;;;;;57.10;19.83;;;11.20;94.00;;;;;;5074989;28;20202;-77
2022/11/16 01:34:29;;;;;;;59.90;19.17;;;11.20;94.00;;;;;;5074424;28;20222;-78
2022/11/16 01:36:57;;;;;;;56.07;18.97;;;11.20;94.00;;;;;;5069280;28;20595;-81
2022/11/16 01:39:25;;;;;;;52.97;18.40;;;11.20;94.00;;;;;;5068970;28;20217;-79
2022/11/16 01:41:54;;;;;;;51.43;17.57;;;11.30;94.00;;;;;;5073606;28;20242;-78
2022/11/16 01:45:04;;;;;;;50.97;17.10;;;11.30;94.00;;;;;;5065022;28;20195;-78
2022/11/16 01:47:34;;;;;;;46.00;16.67;;;11.30;94.10;;;;;;5065102;28;20240;-80
2022/11/16 01:50:07;;;;;;;47.37;16.43;;;11.20;94.20;;;;;;5074139;28;20201;-80
2022/11/16 01:52:40;;;;;;;51.97;17.30;;;11.20;94.10;;;;;;5074400;28;20793;-78
2022/11/16 01:55:09;;;;;;;49.00;17.53;;;11.20;94.10;;;;;;5070286;28;20303;-78
2022/11/16 01:57:42;;;;;;;48.90;15.30;;;11.20;94.10;;;;;;5069089;28;20227;-78
2022/11/16 02:00:13;;;;;;;49.17;16.73;;;11.20;94.20;;;;;;5069100;28;20230;-79
2022/11/16 02:02:43;;;;;;;54.87;16.97;;;11.20;94.30;;;;;;5071780;28;20267;-78
2022/11/16 02:05:14;;;;;;;46.73;16.13;;;11.10;94.40;;;;;;5072570;28;20677;-79
2022/11/16 02:10:58;;;;;;;50.23;15.47;;;11.10;94.50;;;;;;5077127;28;20205;-79
2022/11/16 02:13:38;;;;;;;49.70;15.70;;;11.00;94.50;;;;;;5077769;28;20251;-78
2022/11/16 02:16:17;;;;;;;53.63;16.17;;;11.00;94.50;;;;;;5084752;28;20190;-78
2022/11/16 02:18:57;;;;;;;43.17;14.87;;;11.10;94.60;;;;;;5075435;28;20186;-80
2022/11/16 02:21:35;;;;;;;44.53;14.90;;;11.00;94.70;;;;;;5077037;28;20206;-78
2022/11/16 02:24:32;;;;;;;50.60;16.37;;;11.00;94.60;;;;;;5077885;28;20202;-76
2022/11/16 02:27:33;;;;;;;46.67;15.57;;;11.00;94.60;;;;;;5077527;28;20214;-78
2022/11/16 02:30:04;;;;;;;46.13;15.27;;;11.00;94.70;;;;;;5072739;28;20198;-80
2022/11/16 02:32:37;;;;;;;54.00;18.20;;;11.00;94.70;;;;;;5079748;28;20716;-79
2022/11/16 02:35:12;;;;;;;49.33;17.43;;;11.00;94.70;;;;;;5071497;28;20198;-80
2022/11/16 02:37:46;;;;;;;55.87;18.00;;;11.00;94.80;;;;;;5073811;28;20194;-79
2022/11/16 02:40:17;;;;;;;52.50;16.73;;;11.00;94.80;;;;;;5074195;28;20246;-79
2022/11/16 02:42:51;;;;;;;43.57;16.10;;;11.00;94.80;;;;;;5072183;28;20691;-77
2022/11/16 02:45:24;;;;;;;44.20;17.53;;;11.00;94.80;;;;;;5041460;28;20647;-78
2022/11/16 02:47:56;;;;;;;53.53;16.97;;;11.00;94.80;;;;;;5078293;28;20194;-81
2022/11/16 02:50:25;;;;;;;58.37;18.20;;;11.00;94.80;;;;;;5073775;28;20225;-76
2022/11/16 02:52:54;;;;;;;63.53;18.87;;;11.00;94.80;;;;;;5078636;28;20263;-79
2022/11/16 02:55:23;;;;;;;59.57;18.83;;;11.10;94.80;;;;;;5068692;28;20253;-79
2022/11/16 02:57:55;;;;;;;63.43;20.80;;;11.10;94.80;;;;;;5073152;28;20213;-80
2022/11/16 03:00:27;;;;;;;64.20;19.03;;;11.10;94.80;;;;;;5068554;28;20265;-81
2022/11/16 03:03:08;;;;;;;64.63;20.37;;;11.10;94.80;;;;;;5071865;28;20267;-79
2022/11/16 03:05:41;;;;;;;71.53;22.40;;;11.10;94.80;;;;;;5065165;28;20230;-80
2022/11/16 03:08:18;;;;;;;67.80;21.17;;;11.10;94.80;;;;;;5075684;28;20251;-80
2022/11/16 03:13:40;;;;;;;71.93;21.30;;;11.10;95.20;;;;;;5072587;28;20248;-81
2022/11/16 03:16:13;;;;;;;66.90;21.87;;;11.10;94.80;;;;;;5070692;28;20614;-78
2022/11/16 03:18:43;;;;;;;60.30;20.37;;;11.10;94.70;;;;;;5071354;28;20201;-79
2022/11/16 03:21:18;;;;;;;69.57;21.57;;;11.10;94.80;;;;;;5074562;28;20194;-79
2022/11/16 03:23:46;;;;;;;68.03;21.50;;;11.10;94.80;;;;;;5076427;28;20217;-81
2022/11/16 03:26:20;;;;;;;63.50;20.03;;;11.00;94.80;;;;;;5080819;28;20206;-78
2022/11/16 03:28:55;;;;;;;64.10;21.37;;;11.00;94.80;;;;;;5071110;28;20216;-79
2022/11/16 03:31:29;;;;;;;71.20;23.00;;;11.10;94.80;;;;;;5069414;28;20189;-80
2022/11/16 03:34:03;;;;;;;70.23;21.60;;;11.10;94.70;;;;;;5072447;28;20190;-78
2022/11/16 03:36:34;;;;;;;74.33;22.73;;;11.10;94.80;;;;;;5069792;28;20194;-80
2022/11/16 03:39:08;;;;;;;80.40;25.13;;;11.00;94.80;;;;;;5076055;28;20195;-82
2022/11/16 03:41:39;;;;;;;76.17;23.37;;;11.00;94.80;;;;;;5070778;28;20256;-80
2022/11/16 03:44:08;;;;;;;84.38;26.20;;;10.90;94.90;;;;;;5069926;28;20437;-80
2022/11/16 03:46:38;;;;;;;70.40;22.37;;;10.90;94.90;;;;;;5069224;28;20943;-80
2022/11/16 03:49:07;;;;;;;69.50;21.87;;;10.90;94.90;;;;;;5070109;28;20247;-82
2022/11/16 03:51:35;;;;;;;66.67;22.07;;;11.00;94.90;;;;;;5075374;28;20194;-79
2022/11/16 03:54:04;;;;;;;61.43;21.53;;;11.00;94.90;;;;;;5072929;28;20194;-80
2022/11/16 03:56:32;;;;;;;77.47;24.47;;;10.90;95.00;;;;;;5072278;28;20218;-80
2022/11/16 03:59:00;;;;;;;70.60;22.70;;;10.90;95.00;;;;;;5074210;28;20201;-80
2022/11/16 04:01:29;;;;;;;65.60;20.47;;;10.90;95.00;;;;;;5074396;28;20233;-80
2022/11/16 04:03:59;;;;;;;67.93;22.73;;;10.90;95.00;;;;;;5067963;28;20819;-82
2022/11/16 04:25:55;;;;;;;60.20;19.20;;;10.90;94.90;;;;;;5067941;28;20704;-79
2022/11/16 04:28:26;;;;;;;62.27;19.87;;;10.90;94.80;;;;;;5063106;28;20438;-79
2022/11/16 04:39:15;;;;;;;63.83;19.63;;;10.80;94.90;;;;;;5062902;28;20198;-79
2022/11/16 04:47:05;;;;;;;51.17;18.90;;;10.90;94.90;;;;;;5070700;28;20679;-79
2022/11/16 04:47:17;;;;;;;53.17;18.43;;;10.80;94.80;;;;;;5066791;28;20649;-79
2022/11/16 04:49:45;;;;;;;50.40;17.90;;;10.90;94.80;;;;;;5069825;28;20222;-78
2022/11/16 04:52:15;;;;;;;50.87;18.87;;;10.80;94.80;;;;;;5070527;28;20198;-78
2022/11/16 04:54:43;;;;;;;58.57;18.13;;;10.90;94.80;;;;;;5068134;28;20255;-79
2022/11/16 04:57:11;;;;;;;56.80;18.23;;;10.90;94.70;;;;;;5069714;28;20198;-80
2022/11/16 04:59:40;;;;;;;47.00;16.10;;;10.90;94.80;;;;;;5066089;28;20275;-78
2022/11/16 05:02:08;;;;;;;54.30;18.53;;;10.90;94.80;;;;;;5067157;28;20241;-79
2022/11/16 05:04:37;;;;;;;48.40;17.53;;;10.90;94.80;;;;;;5060225;28;20206;-79
2022/11/16 05:07:09;;;;;;;48.07;18.27;;;10.90;94.80;;;;;;5067083;28;20335;-77
2022/11/16 05:09:41;;;;;;;50.13;18.80;;;10.90;94.80;;;;;;5050715;28;20289;-80
2022/11/16 05:12:13;;;;;;;57.20;19.37;;;10.90;94.80;;;;;;5067573;28;20214;-79
2022/11/16 05:14:42;;;;;;;49.43;17.77;;;10.90;94.80;;;;;;5065368;28;20198;-77
2022/11/16 05:17:10;;;;;;;52.13;18.30;;;11.00;94.80;;;;;;5065102;28;20273;-77
2022/11/16 05:22:25;;;;;;;54.40;18.30;;;11.00;94.80;;;;;;5062603;28;20618;-80
2022/11/16 05:24:54;;;;;;;50.60;18.63;;;11.00;94.70;;;;;;5056865;28;20663;-80
2022/11/16 05:27:24;;;;;;;49.53;17.87;;;11.00;94.70;;;;;;5065092;28;20281;-78
2022/11/16 05:29:53;;;;;;;56.83;18.33;;;10.90;94.70;;;;;;5059222;28;20753;-83
2022/11/16 05:32:23;;;;;;;56.27;19.87;;;10.90;94.70;;;;;;5067340;28;20210;-80
2022/11/16 05:34:51;;;;;;;61.83;21.67;;;11.00;94.70;;;;;;5061805;28;20690;-82
2022/11/16 05:37:22;;;;;;;66.57;22.13;;;11.00;94.70;;;;;;5066734;28;20209;-79
2022/11/16 05:39:50;;;;;;;66.67;22.33;;;10.90;94.70;;;;;;5062784;28;20203;-79
2022/11/16 05:42:19;;;;;;;67.97;23.37;;;10.90;94.70;;;;;;5068074;28;20254;-80
2022/11/16 05:44:48;;;;;;;65.03;22.00;;;10.90;94.80;;;;;;5065358;28;20202;-79
2022/11/16 05:47:16;;;;;;;68.57;24.40;;;10.90;94.80;;;;;;5070795;28;20501;-78
2022/11/16 05:49:44;;;;;;;69.20;21.10;;;10.90;94.90;;;;;;5072780;28;20191;-78
2022/11/16 05:52:13;;;;;;;58.67;20.87;;;10.90;94.90;;;;;;5065902;28;20241;-80
2022/11/16 05:54:41;;;;;;;67.70;22.07;;;10.90;94.90;;;;;;5063633;28;20202;-80
2022/11/16 05:57:09;;;;;;;65.17;22.87;;;10.80;94.90;;;;;;5069394;28;20607;-79
2022/11/16 05:59:39;;;;;;;52.90;19.37;;;10.80;94.90;;;;;;5066859;28;20234;-79
2022/11/16 06:02:07;;;;;;;63.07;21.60;;;10.80;95.00;;;;;;5066951;28;20285;-79
2022/11/16 06:04:35;;;;;;;56.40;20.00;;;10.80;95.00;;;;;;5065606;28;20275;-78
2022/11/16 06:07:03;;;;;;;59.47;20.73;;;10.80;95.00;;;;;;5067744;28;20194;-78
2022/11/16 06:09:32;;;;;;;62.50;19.70;;;10.90;95.10;;;;;;5069242;28;20578;-80
2022/11/16 06:12:00;;;;;;;55.80;20.23;;;10.80;95.00;;;;;;5070395;28;20251;-80
2022/11/16 06:14:28;;;;;;;60.83;18.90;;;10.90;95.00;;;;;;5069823;28;20191;-80
2022/11/16 06:16:58;;;;;;;54.87;19.87;;;10.90;95.00;;;;;;5073690;28;20202;-79
2022/11/16 06:19:26;;;;;;;61.33;23.50;;;10.90;95.00;;;;;;5062858;28;20301;-79
2022/11/16 06:21:59;;;;;;;54.23;18.90;;;10.90;94.90;;;;;;5064977;28;20236;-81
2022/11/16 06:24:27;;;;;;;62.33;20.57;;;10.90;94.90;;;;;;5065683;28;20210;-79
2022/11/16 06:26:56;;;;;;;59.00;19.97;;;11.00;94.90;;;;;;5070483;28;20599;-80
2022/11/16 06:29:24;;;;;;;64.57;20.00;;;11.00;94.90;;;;;;5067342;28;20279;-76
2022/11/16 06:31:53;;;;;;;61.03;20.10;;;11.00;94.90;;;;;;5068014;28;20225;-80
2022/11/16 06:34:23;;;;;;;64.10;19.40;;;10.90;94.90;;;;;;5074101;28;20202;-80
2022/11/16 06:36:51;;;;;;;62.70;19.73;;;11.00;94.90;;;;;;5067286;28;20914;-80
2022/11/16 06:39:20;;;;;;;55.10;20.40;;;10.90;95.00;;;;;;5074244;28;20218;-79
2022/11/16 06:41:48;;;;;;;51.43;18.47;;;10.90;95.00;;;;;;5074480;28;20198;-81
2022/11/16 06:44:16;;;;;;;58.93;21.50;;;10.90;95.00;;;;;;5074339;28;20752;-81
2022/11/16 06:46:45;;;;;;;59.27;21.43;;;10.90;95.00;;;;;;5074652;28;20256;-80
2022/11/16 06:49:13;;;;;;;60.00;20.43;;;10.90;95.40;;;;;;5078595;28;20653;-78
2022/11/16 06:51:42;;;;;;;68.30;21.53;;;10.90;95.00;;;;;;5037618;28;20210;-81
2022/11/16 06:54:11;;;;;;;57.30;20.07;;;10.90;95.10;;;;;;5075902;28;20203;-76
2022/11/16 06:56:39;;;;;;;68.07;21.98;;;10.80;95.20;;;;;;5073609;28;20431;-79
2022/11/16 06:59:07;;;;;;;69.57;21.63;;;10.90;95.30;;;;;;5076548;28;20230;-80
2022/11/16 07:01:36;;;;;;;64.67;20.07;;;10.80;95.30;;;;;;5072996;28;20230;-82
2022/11/16 07:04:04;;;;;;;63.40;21.30;;;10.80;95.30;;;;;;5071763;28;20642;-78
2022/11/16 07:06:32;;;;;;;64.47;21.27;;;10.80;95.70;;;;;;5072474;28;20240;-81
2022/11/16 07:09:06;;;;;;;63.27;20.83;;;10.80;95.30;;;;;;5072584;28;20199;-80
2022/11/16 07:11:34;;;;;;;65.73;22.83;;;10.90;95.30;;;;;;5075583;28;20199;-79
2022/11/16 07:14:03;;;;;;;72.03;21.33;;;10.90;95.40;;;;;;5074408;28;20229;-80
2022/11/16 07:16:31;;;;;;;73.40;21.47;;;10.90;95.40;;;;;;5066546;28;20617;-77
2022/11/16 07:18:59;;;;;;;63.27;22.10;;;10.90;95.50;;;;;;5072505;28;20230;-79
2022/11/16 07:21:28;;;;;;;62.57;22.43;;;11.00;95.50;;;;;;5073034;28;20195;-80
2022/11/16 07:23:57;;;;;;;67.63;22.03;;;11.00;95.30;;;;;;5074591;28;20284;-79
2022/11/16 07:26:27;;;;;;;57.65;20.45;;;11.10;95.30;;;;;;5070787;28;20471;-80
2022/11/16 07:28:55;;;;;;;63.30;20.53;;;11.10;95.30;;;;;;5068534;28;20206;-81
2022/11/16 07:31:24;;;;;;;59.57;19.87;;;11.10;95.30;;;;;;5072130;28;20539;-79
2022/11/16 07:33:52;;;;;;;62.13;20.87;;;11.10;95.30;;;;;;5080574;28;20191;-79
2022/11/16 07:36:21;;;;;;;55.87;18.93;;;11.10;95.20;;;;;;5075028;28;20244;-81
2022/11/16 07:38:49;;;;;;;46.83;15.97;;;11.10;95.20;;;;;;5074577;28;20251;-80
2022/11/16 07:41:19;;;;;;;44.17;16.00;;;11.10;95.20;;;;;;5071602;28;20682;-80
2022/11/16 07:43:49;;;;;;;39.23;14.40;;;11.10;95.20;;;;;;5070374;28;20257;-77
2022/11/16 07:46:22;;;;;;;44.53;14.23;;;11.10;95.20;;;;;;5066241;28;20222;-79
2022/11/16 07:49:13;;;;;;;37.87;13.57;;;11.10;95.20;;;;;;5071207;28;20198;-79
2022/11/16 07:51:41;;;;;;;37.73;14.70;;;11.20;95.20;;;;;;5070857;28;20190;-82
2022/11/16 07:54:12;;;;;;;34.63;13.10;;;11.20;95.10;;;;;;5072888;28;20194;-79
2022/11/16 07:56:40;;;;;;;32.87;12.07;;;11.10;95.10;;;;;;5072770;28;20236;-81
2022/11/16 07:59:10;;;;;;;36.40;13.80;;;11.10;95.10;;;;;;5070279;28;20240;-80
2022/11/16 08:01:38;;;;;;;35.20;12.67;;;11.10;95.20;;;;;;5066723;28;20230;-79
2022/11/16 08:04:07;;;;;;;33.70;12.40;;;11.10;95.30;;;;;;5068947;28;20221;-76
2022/11/16 08:06:35;;;;;;;30.03;11.57;;;11.10;95.30;;;;;;5072243;28;20198;-81
2022/11/16 08:09:04;;;;;;;33.10;12.27;;;11.00;95.30;;;;;;5066151;28;20293;-81
2022/11/16 08:11:32;;;;;;;31.03;12.43;;;11.00;95.40;;;;;;5068858;28;20209;-81
2022/11/16 08:14:00;;;;;;;43.07;15.37;;;11.00;95.40;;;;;;5070272;28;20194;-80
2022/11/16 08:16:32;;;;;;;41.97;14.53;;;11.10;95.40;;;;;;5074108;28;20248;-82
2022/11/16 08:19:01;;;;;;;33.07;13.10;;;11.10;95.40;;;;;;5066248;28;20201;-81
2022/11/16 08:21:29;;;;;;;38.57;14.20;;;11.20;95.40;;;;;;5069823;28;20190;-84
2022/11/16 08:23:57;;;;;;;42.93;14.60;;;11.20;95.40;;;;;;5056433;28;20370;-78
2022/11/16 08:26:27;;;;;;;31.93;12.17;;;11.20;95.40;;;;;;5062856;28;20270;-78
2022/11/16 08:28:56;;;;;;;38.00;15.03;;;11.30;95.30;;;;;;5068853;28;20295;-79
2022/11/16 08:31:26;;;;;;;40.33;16.10;;;11.30;95.60;;;;;;5065938;28;20205;-77
2022/11/16 08:33:56;;;;;;;41.67;14.60;;;11.30;95.20;;;;;;5073688;28;20235;-80
2022/11/16 08:36:28;;;;;;;35.67;14.50;;;11.30;95.20;;;;;;5066035;28;20535;-79
2022/11/16 08:38:57;;;;;;;29.13;12.77;;;11.40;95.20;;;;;;5072667;28;20259;-81
2022/11/16 08:41:25;;;;;;;31.47;12.33;;;11.40;95.00;;;;;;5066415;28;20199;-78
2022/11/16 08:43:54;;;;;;;27.30;12.47;;;11.40;94.90;;;;;;5072233;28;20211;-83
2022/11/16 08:46:22;;;;;;;35.07;13.60;;;11.40;94.90;;;;;;5069904;28;20217;-80
2022/11/16 08:48:56;;;;;;;34.33;13.47;;;11.40;94.90;;;;;;5068051;28;20190;-77
2022/11/16 08:51:25;;;;;;;37.07;14.60;;;11.50;94.90;;;;;;5076976;28;20204;-79
2022/11/16 08:53:57;;;;;;;36.90;14.83;;;11.60;94.80;;;;;;5070166;28;20711;-81
2022/11/16 08:56:26;;;;;;;38.30;16.03;;;11.60;94.80;;;;;;5069452;28;20194;-80
2022/11/16 08:58:55;;;;;;;47.77;16.67;;;11.60;94.80;;;;;;5067666;28;20194;-80
2022/11/16 09:01:28;;;;;;;48.70;16.87;;;11.60;94.80;;;;;;5066658;28;20230;-81
2022/11/16 09:03:58;;;;;;;45.47;16.70;;;11.60;94.90;;;;;;5068488;28;20277;-82
2022/11/16 09:06:27;;;;;;;39.83;14.33;;;11.50;94.90;;;;;;5066094;28;20193;-80
2022/11/16 09:08:56;;;;;;;39.77;14.83;;;11.50;94.90;;;;;;5063004;28;20259;-79
2022/11/16 09:11:25;;;;;;;40.00;16.40;;;11.60;94.90;;;;;;5069886;28;20194;-81
2022/11/16 09:13:55;;;;;;;49.57;17.80;;;11.60;94.90;;;;;;5073374;28;20244;-82
2022/11/16 09:16:25;;;;;;;53.97;18.73;;;11.70;94.90;;;;;;5075785;28;20235;-79
2022/11/16 09:18:54;;;;;;;62.43;19.27;;;11.80;94.80;;;;;;5068786;28;20237;-80
2022/11/16 09:21:30;;;;;;;54.60;19.10;;;11.70;94.80;;;;;;5070750;28;20217;-82
2022/11/16 09:23:59;;;;;;;50.93;18.40;;;11.80;95.10;;;;;;5074304;28;20789;-80
2022/11/16 09:26:27;;;;;;;51.83;17.70;;;11.80;94.80;;;;;;5062074;28;20220;-78
2022/11/16 09:28:57;;;;;;;55.93;18.83;;;11.70;94.70;;;;;;5069516;28;20201;-81
2022/11/16 09:31:27;;;;;;;46.00;17.57;;;11.80;94.70;;;;;;5068095;28;20203;-79
2022/11/16 09:33:57;;;;;;;45.40;16.80;;;11.80;94.80;;;;;;5071370;28;20255;-77
2022/11/16 09:36:28;;;;;;;46.20;16.93;;;11.70;94.70;;;;;;5073604;28;20192;-77
2022/11/16 09:38:57;;;;;;;44.80;16.73;;;11.80;94.80;;;;;;5073855;28;20190;-76
2022/11/16 09:41:58;;;;;;;52.13;18.87;;;11.80;94.80;;;;;;5072107;28;20705;-78
2022/11/16 09:44:47;;;;;;;47.17;16.53;;;11.90;94.70;;;;;;5068579;28;20206;-75
2022/11/16 09:47:21;;;;;;;39.60;14.43;;;11.90;94.70;;;;;;5069816;28;20195;-79
2022/11/16 09:49:53;;;;;;;42.07;15.43;;;11.80;94.50;;;;;;5071145;28;20680;-76
2022/11/16 09:52:35;;;;;;;37.47;14.83;;;11.90;94.50;;;;;;5070680;28;20201;-79
2022/11/16 09:55:19;;;;;;;43.90;16.63;;;11.80;94.50;;;;;;5070889;28;20436;-76
2022/11/16 09:57:50;;;;;;;38.23;14.00;;;11.90;94.60;;;;;;5066343;28;20199;-75
2022/11/16 10:00:21;;;;;;;42.87;15.93;;;11.90;94.60;;;;;;5071540;28;20687;-78
2022/11/16 10:03:00;;;;;;;36.07;14.23;;;11.90;94.60;;;;;;5071942;28;20639;-78
2022/11/16 10:05:32;;;;;;;34.70;15.07;;;11.90;94.70;;;;;;5067444;28;20230;-77
2022/11/16 10:08:09;;;;;;;38.77;15.00;;;11.90;94.60;;;;;;5070862;28;20244;-75
2022/11/16 10:10:39;;;;;;;40.13;15.83;;;12.00;94.60;;;;;;5067173;28;20589;-78
2022/11/16 10:13:19;;;;;;;36.70;13.30;;;12.00;94.70;;;;;;5071964;28;20670;-76
2022/11/16 10:15:59;;;;;;;39.00;14.00;;;12.00;94.70;;;;;;5069754;28;20222;-77
2022/11/16 10:18:47;;;;;;;42.77;16.43;;;12.00;94.60;;;;;;5077466;28;20198;-77
2022/11/16 10:21:32;;;;;;;50.40;16.10;;;12.10;94.70;;;;;;5068743;28;20591;-77
2022/11/16 10:24:30;;;;;;;41.40;16.00;;;12.10;94.50;;;;;;5070521;28;20197;-79
2022/11/16 10:27:22;;;;;;;44.75;17.55;;;12.20;94.50;;;;;;5070154;28;20435;-78
2022/11/16 10:30:07;;;;;;;37.83;14.73;;;12.30;94.50;;;;;;5067095;28;20260;-80
2022/11/16 10:32:40;;;;;;;41.67;14.47;;;12.20;94.30;;;;;;5063755;28;20198;-79
2022/11/16 10:37:47;;;;;;;39.80;16.07;;;12.20;94.30;;;;;;5074781;22;20230;-73
2022/11/16 10:40:23;;;;;;;45.13;16.23;;;12.20;94.30;;;;;;5087840;28;20711;-75
2022/11/16 10:43:01;;;;;;;39.63;16.07;;;12.20;94.20;;;;;;5085785;28;20193;-76
2022/11/16 10:45:37;;;;;;;40.13;15.60;;;12.30;94.30;;;;;;5081218;28;20664;-75
2022/11/16 10:48:17;;;;;;;40.90;16.30;;;12.30;94.20;;;;;;5084960;28;20706;-75
2022/11/16 10:50:48;;;;;;;38.20;15.73;;;12.30;94.10;;;;;;5078538;28;20230;-75
2022/11/16 10:53:27;;;;;;;45.60;16.17;;;12.30;94.10;;;;;;5085897;28;20186;-75
2022/11/16 10:56:13;;;;;;;50.70;17.03;;;12.40;94.20;;;;;;5085200;28;20277;-73
2022/11/16 10:58:53;;;;;;;43.30;16.50;;;12.40;94.10;;;;;;5090737;28;20649;-76
2022/11/16 11:01:30;;;;;;;42.47;15.17;;;12.50;94.20;;;;;;5083493;28;20190;-75
2022/11/16 11:04:21;;;;;;;41.53;16.10;;;12.50;94.10;;;;;;5086256;28;20185;-73
2022/11/16 11:06:51;;;;;;;33.97;13.83;;;12.50;94.00;;;;;;5087474;28;20745;-76
2022/11/16 11:09:30;;;;;;;40.53;14.77;;;12.60;93.90;;;;;;5081658;28;20279;-74
2022/11/16 11:15:05;;;;;;;43.10;17.17;;;12.70;93.90;;;;;;5084307;28;20186;-75
2022/11/16 11:17:35;;;;;;;42.80;15.40;;;12.70;93.80;;;;;;5087055;28;20590;-75
2022/11/16 11:20:06;;;;;;;44.90;16.00;;;12.70;93.80;;;;;;5088544;28;20194;-74
2022/11/16 11:22:42;;;;;;;43.93;16.07;;;12.70;93.70;;;;;;5080859;28;20213;-76
2022/11/16 11:25:20;;;;;;;44.73;15.20;;;12.70;94.10;;;;;;5076900;28;20233;-75
2022/11/16 11:27:50;;;;;;;54.07;17.47;;;12.80;93.80;;;;;;5081702;28;20193;-75
2022/11/16 11:30:20;;;;;;;47.27;17.67;;;12.80;94.10;;;;;;5080234;28;20639;-74
2022/11/16 11:32:51;;;;;;;54.40;17.13;;;12.80;93.70;;;;;;5084134;28;20215;-74
2022/11/16 11:35:24;;;;;;;49.63;19.47;;;12.80;93.60;;;;;;5088306;28;20208;-76
2022/11/16 11:37:55;;;;;;;53.83;18.87;;;12.90;93.60;;;;;;5083039;28;20222;-76
2022/11/16 11:40:25;;;;;;;46.70;18.30;;;12.90;93.60;;;;;;5085935;28;20198;-74
2022/11/16 11:42:58;;;;;;;44.40;16.53;;;12.90;93.50;;;;;;5083992;28;20194;-78
2022/11/16 11:45:37;;;;;;;51.50;17.07;;;12.90;93.30;;;;;;5083511;28;20217;-78
2022/11/16 11:48:21;;;;;;;47.87;17.20;;;13.00;93.40;;;;;;5080112;28;20239;-76
2022/11/16 11:50:53;;;;;;;54.17;19.65;;;13.00;93.30;;;;;;5082129;28;20430;-76
2022/11/16 11:53:36;;;;;;;52.27;18.00;;;13.10;93.40;;;;;;5084809;28;20201;-76
2022/11/16 11:56:05;;;;;;;53.17;18.30;;;13.10;93.30;;;;;;5085302;28;20634;-77
2022/11/16 11:58:38;;;;;;;50.73;17.83;;;13.00;93.10;;;;;;5082911;28;20213;-76
2022/11/16 12:01:29;;;;;;;47.10;18.67;;;13.00;93.10;;;;;;5085355;28;20209;-75
2022/11/16 12:04:35;;;;;;;49.30;17.07;;;13.10;93.10;;;;;;5087276;28;20190;-76
2022/11/16 12:07:10;;;;;;;49.13;18.60;;;13.10;93.10;;;;;;5088126;28;20261;-75
2022/11/16 12:09:46;;;;;;;49.37;18.77;;;13.20;93.20;;;;;;5077580;28;20213;-75
2022/11/16 12:12:29;;;;;;;57.43;20.53;;;13.20;93.20;;;;;;5086091;28;20215;-75
2022/11/16 12:15:31;;;;;;;58.90;22.40;;;13.20;93.10;;;;;;5082813;28;20491;-77
2022/11/16 12:18:12;;;;;;;61.20;21.10;;;13.20;93.00;;;;;;5085046;28;20223;-76
2022/11/16 12:20:47;;;;;;;66.57;20.93;;;13.10;93.00;;;;;;5087133;28;20658;-75
2022/11/16 12:23:56;;;;;;;66.17;19.27;;;13.20;93.00;;;;;;5083236;28;20548;-76
2022/11/16 12:26:33;;;;;;;48.93;19.50;;;13.30;93.00;;;;;;5084807;28;20251;-76
2022/11/16 12:29:17;;;;;;;53.70;20.63;;;13.30;92.90;;;;;;5080457;28;20511;-77
2022/11/16 12:32:11;;;;;;;51.20;19.37;;;13.30;93.00;;;;;;5085666;28;20220;-77
2022/11/16 12:34:52;;;;;;;49.20;17.17;;;13.30;92.80;;;;;;5080908;28;20228;-77
2022/11/16 12:37:29;;;;;;;55.63;19.23;;;13.30;92.80;;;;;;5087259;28;20751;-77
2022/11/16 12:40:18;;;;;;;48.43;18.13;;;13.30;92.70;;;;;;5081722;28;20660;-74
2022/11/16 12:42:55;;;;;;;46.07;18.10;;;13.40;92.80;;;;;;5089511;28;20182;-77
2022/11/16 12:45:40;;;;;;;55.10;20.10;;;13.40;92.60;;;;;;5082060;28;20225;-79
2022/11/16 12:48:42;;;;;;;49.33;18.23;;;13.40;92.60;;;;;;5087150;28;20193;-76
2022/11/16 12:51:20;;;;;;;52.40;18.03;;;13.50;92.60;;;;;;5081853;28;20214;-76
2022/11/16 12:54:06;;;;;;;54.53;20.65;;;13.50;92.50;;;;;;5082837;28;20462;-77
2022/11/16 12:56:46;;;;;;;53.70;19.47;;;13.60;92.50;;;;;;5083542;28;20198;-77
2022/11/16 12:59:28;;;;;;;51.30;19.37;;;13.60;92.40;;;;;;5086747;28;20190;-76
2022/11/16 13:02:07;;;;;;;50.80;19.97;;;13.60;92.30;;;;;;5085250;28;20225;-76
2022/11/16 13:04:41;;;;;;;55.10;20.60;;;13.60;92.30;;;;;;5086702;28;20650;-77
2022/11/16 13:07:15;;;;;;;54.87;19.03;;;13.60;92.20;;;;;;5087646;28;20201;-77
2022/11/16 13:09:48;;;;;;;52.13;19.50;;;13.60;92.30;;;;;;5086866;28;20190;-75
2022/11/16 13:12:22;;;;;;;53.20;20.57;;;13.70;92.30;;;;;;5085644;28;20231;-77
2022/11/16 13:14:53;;;;;;;48.83;19.40;;;13.70;92.20;;;;;;5085412;28;20669;-78
2022/11/16 13:17:24;;;;;;;51.83;19.53;;;13.80;92.10;;;;;;5088275;28;20242;-78
2022/11/16 13:20:07;;;;;;;49.13;20.15;;;14.20;91.70;;;;;;5086643;28;20492;-77
2022/11/16 13:22:45;;;;;;;45.10;18.90;;;14.20;91.50;;;;;;5087790;28;20560;-76
2022/11/16 13:25:20;;;;;;;48.43;18.03;;;14.60;91.20;;;;;;5086213;28;20267;-76
2022/11/16 13:27:54;;;;;;;52.83;19.33;;;15.50;90.00;;;;;;5089662;28;20221;-76
2022/11/16 13:30:26;;;;;;;42.60;18.33;;;15.60;89.20;;;;;;5084886;28;20277;-76
2022/11/16 13:33:14;;;;;;;47.93;18.47;;;16.10;87.90;;;;;;5082135;28;20186;-81
2022/11/16 13:35:43;;;;;;;46.27;18.00;;;16.80;84.70;;;;;;5088059;28;20189;-76
2022/11/16 13:38:13;;;;;;;45.17;18.40;;;16.30;85.00;;;;;;5079819;28;20246;-76
2022/11/16 13:40:41;;;;;;;48.37;19.23;;;15.90;86.00;;;;;;5081226;28;20187;-76